createdAt,value
2022-11-05T00:03:58.642Z,8.70
2022-11-05T00:06:26.915Z,8.70
2022-11-05T00:08:54.073Z,8.70
2022-11-05T00:11:20.979Z,8.70
2022-11-05T00:13:48.572Z,8.70
2022-11-05T00:16:15.486Z,8.70
2022-11-05T00:18:42.371Z,8.70
2022-11-05T00:21:09.959Z,8.70
2022-11-05T00:23:38.428Z,8.70
2022-11-05T00:26:08.028Z,8.80
2022-11-05T00:28:35.491Z,8.80
2022-11-05T00:31:05.413Z,8.90
2022-11-05T00:33:33.703Z,9.00
2022-11-05T00:36:02.823Z,9.00
2022-11-05T00:38:30.175Z,9.00
2022-11-05T00:40:58.743Z,9.00
2022-11-05T00:43:25.699Z,9.00
2022-11-05T00:45:52.717Z,9.00
2022-11-05T00:48:19.598Z,9.00
2022-11-05T00:50:46.454Z,9.00
2022-11-05T00:53:13.800Z,8.90
2022-11-05T00:55:42.912Z,8.90
2022-11-05T00:58:14.259Z,8.90
2022-11-05T01:00:49.092Z,8.80
2022-11-05T01:03:18.707Z,8.80
2022-11-05T01:05:48.408Z,8.80
2022-11-05T01:08:19.968Z,8.70
2022-11-05T01:10:49.570Z,8.70
2022-11-05T01:13:21.675Z,8.60
2022-11-05T01:15:49.203Z,8.60
2022-11-05T01:18:16.276Z,8.50
2022-11-05T01:20:44.383Z,8.50
2022-11-05T01:23:13.747Z,8.40
2022-11-05T01:25:42.143Z,8.40
2022-11-05T01:28:09.835Z,8.40
2022-11-05T01:30:39.080Z,8.30
2022-11-05T01:33:06.676Z,8.30
2022-11-05T01:35:33.723Z,8.30
2022-11-05T01:38:00.686Z,8.20
2022-11-05T01:40:27.829Z,8.20
2022-11-05T01:42:55.156Z,8.20
2022-11-05T01:45:25.032Z,8.10
2022-11-05T01:48:03.041Z,8.10
2022-11-05T01:50:49.009Z,8.10
2022-11-05T01:53:24.132Z,8.00
2022-11-05T01:55:58.793Z,8.00
2022-11-05T01:58:34.512Z,8.00
2022-11-05T02:04:02.804Z,8.00
2022-11-05T02:06:32.823Z,7.90
2022-11-05T02:09:06.521Z,7.90
2022-11-05T02:11:34.190Z,7.90
2022-11-05T02:14:01.314Z,7.90
2022-11-05T02:16:41.152Z,7.80
2022-11-05T02:19:49.352Z,7.80
2022-11-05T02:22:44.483Z,7.80
2022-11-05T02:25:46.224Z,7.80
2022-11-05T02:28:41.112Z,7.80
2022-11-05T02:31:22.183Z,7.70
2022-11-05T02:34:30.576Z,7.70
2022-11-05T02:37:09.293Z,7.70
2022-11-05T02:39:48.472Z,7.60
2022-11-05T02:42:30.122Z,7.60
2022-11-05T02:45:10.378Z,7.60
2022-11-05T02:47:45.199Z,7.60
2022-11-05T02:50:24.461Z,7.60
2022-11-05T02:53:01.307Z,7.60
2022-11-05T02:55:37.084Z,7.60
2022-11-05T02:58:04.872Z,7.60
2022-11-05T03:00:48.771Z,7.60
2022-11-05T03:03:29.408Z,7.60
2022-11-05T03:06:38.891Z,7.60
2022-11-05T03:09:59.532Z,7.50
2022-11-05T03:12:42.637Z,7.50
2022-11-05T03:15:26.590Z,7.50
2022-11-05T03:18:06.522Z,7.50
2022-11-05T03:20:41.141Z,7.50
2022-11-05T03:23:21.563Z,7.50
2022-11-05T03:25:53.892Z,7.50
2022-11-05T03:28:24.123Z,7.50
2022-11-05T03:30:54.528Z,7.50
2022-11-05T03:33:29.764Z,7.40
2022-11-05T03:36:03.397Z,7.40
2022-11-05T03:38:36.686Z,7.40
2022-11-05T03:41:09.989Z,7.40
2022-11-05T03:43:41.340Z,7.40
2022-11-05T03:46:14.944Z,7.40
2022-11-05T03:48:49.232Z,7.40
2022-11-05T03:51:35.553Z,7.40
2022-11-05T03:54:05.298Z,7.30
2022-11-05T03:56:40.196Z,7.30
2022-11-05T03:59:09.909Z,7.30
2022-11-05T04:01:38.409Z,7.30
2022-11-05T04:04:09.727Z,7.30
2022-11-05T04:06:38.032Z,7.30
2022-11-05T04:09:04.884Z,7.30
2022-11-05T04:11:32.175Z,7.30
2022-11-05T04:13:59.179Z,7.30
2022-11-05T04:16:31.395Z,7.30
2022-11-05T04:18:59.439Z,7.30
2022-11-05T04:21:26.469Z,7.20
2022-11-05T04:23:56.204Z,7.20
2022-11-05T04:26:23.195Z,7.20
2022-11-05T04:28:50.349Z,7.10
2022-11-05T04:31:17.285Z,7.10
2022-11-05T04:36:35.291Z,7.00
2022-11-05T04:39:03.806Z,7.00
2022-11-05T04:41:30.832Z,7.00
2022-11-05T04:43:57.899Z,6.90
2022-11-05T04:46:24.776Z,6.90
2022-11-05T04:48:52.450Z,6.90
2022-11-05T04:51:19.479Z,6.90
2022-11-05T04:53:46.404Z,6.80
2022-11-05T04:56:20.356Z,6.80
2022-11-05T04:58:48.140Z,6.80
2022-11-05T05:01:17.441Z,6.80
2022-11-05T05:03:46.841Z,6.80
2022-11-05T05:06:13.773Z,6.80
2022-11-05T05:08:41.014Z,6.70
2022-11-05T05:11:12.088Z,6.70
2022-11-05T05:13:40.465Z,6.70
2022-11-05T05:16:09.763Z,6.70
2022-11-05T05:18:36.584Z,6.70
2022-11-05T05:21:04.263Z,6.60
2022-11-05T05:23:31.275Z,6.60
2022-11-05T05:25:59.350Z,6.60
2022-11-05T05:28:27.223Z,6.60
2022-11-05T05:30:59.840Z,6.60
2022-11-05T05:33:27.202Z,6.60
2022-11-05T05:35:56.843Z,6.50
2022-11-05T05:38:24.161Z,6.50
2022-11-05T05:40:52.474Z,6.50
2022-11-05T05:43:19.448Z,6.50
2022-11-05T05:45:46.450Z,6.50
2022-11-05T05:48:14.836Z,6.50
2022-11-05T05:50:44.041Z,6.40
2022-11-05T05:53:11.167Z,6.40
2022-11-05T05:55:38.157Z,6.40
2022-11-05T05:58:05.203Z,6.40
2022-11-05T06:00:32.040Z,6.40
2022-11-05T06:02:59.142Z,6.40
2022-11-05T06:05:28.162Z,6.30
2022-11-05T06:07:56.431Z,6.30
2022-11-05T06:10:51.324Z,6.30
2022-11-05T06:13:18.365Z,6.30
2022-11-05T06:15:45.357Z,6.30
2022-11-05T06:18:12.258Z,6.30
2022-11-05T06:20:40.659Z,6.30
2022-11-05T06:23:08.679Z,6.30
2022-11-05T06:25:40.914Z,6.30
2022-11-05T06:28:08.093Z,6.30
2022-11-05T06:30:35.252Z,6.30
2022-11-05T06:33:03.778Z,6.30
2022-11-05T06:35:31.424Z,6.30
2022-11-05T06:38:00.909Z,6.30
2022-11-05T06:40:28.426Z,6.30
2022-11-05T06:42:55.488Z,6.30
2022-11-05T06:45:22.378Z,6.30
2022-11-05T06:47:56.233Z,6.30
2022-11-05T06:50:24.076Z,6.40
2022-11-05T06:52:55.693Z,6.40
2022-11-05T06:55:25.121Z,6.40
2022-11-05T06:57:52.249Z,6.50
2022-11-05T07:00:19.635Z,6.50
2022-11-05T07:02:47.437Z,6.50
2022-11-05T07:05:15.651Z,6.60
2022-11-05T07:07:45.309Z,6.60
2022-11-05T07:10:14.992Z,6.70
2022-11-05T07:12:43.475Z,6.70
2022-11-05T07:15:12.374Z,6.80
2022-11-05T07:17:39.554Z,6.80
2022-11-05T07:20:09.882Z,6.90
2022-11-05T07:22:37.519Z,7.00
2022-11-05T07:25:06.136Z,7.10
2022-11-05T07:27:37.995Z,7.10
2022-11-05T07:30:09.210Z,7.20
2022-11-05T07:32:39.860Z,7.30
2022-11-05T07:35:09.134Z,7.40
2022-11-05T07:37:43.027Z,7.50
2022-11-05T07:40:11.459Z,7.60
2022-11-05T07:42:41.163Z,7.70
2022-11-05T07:45:11.378Z,7.80
2022-11-05T07:47:38.536Z,8.00
2022-11-05T07:50:06.759Z,8.20
2022-11-05T07:52:33.838Z,8.40
2022-11-05T07:55:00.727Z,8.60
2022-11-05T07:57:27.635Z,8.80
2022-11-05T07:59:54.738Z,9.10
2022-11-05T08:02:23.331Z,9.40
2022-11-05T08:04:50.533Z,9.70
2022-11-05T08:07:17.363Z,10.10
2022-11-05T08:09:44.302Z,10.50
2022-11-05T08:12:11.498Z,10.80
2022-11-05T08:14:38.347Z,11.20
2022-11-05T08:19:58.103Z,11.90
2022-11-05T08:22:26.009Z,12.20
2022-11-05T08:24:52.835Z,12.50
2022-11-05T08:27:19.709Z,12.80
2022-11-05T08:29:46.862Z,13.10
2022-11-05T08:32:13.825Z,13.40
2022-11-05T08:34:40.804Z,13.70
2022-11-05T08:37:09.121Z,13.90
2022-11-05T08:39:36.216Z,14.20
2022-11-05T08:42:03.217Z,14.50
2022-11-05T08:44:30.215Z,14.70
2022-11-05T08:46:57.333Z,14.90
2022-11-05T08:49:24.163Z,15.00
2022-11-05T08:51:51.329Z,15.10
2022-11-05T08:54:19.526Z,15.10
2022-11-05T08:56:46.391Z,15.20
2022-11-05T08:59:13.284Z,15.00
2022-11-05T09:01:40.271Z,14.60
2022-11-05T09:04:07.072Z,14.20
2022-11-05T09:06:34.180Z,13.80
2022-11-05T09:09:01.385Z,13.70
2022-11-05T09:11:49.969Z,13.60
2022-11-05T09:14:16.886Z,13.70
2022-11-05T09:16:43.805Z,13.70
2022-11-05T09:19:10.805Z,13.70
2022-11-05T09:21:37.679Z,13.80
2022-11-05T09:24:04.994Z,13.80
2022-11-05T09:26:33.388Z,13.90
2022-11-05T09:29:00.193Z,14.20
2022-11-05T09:31:26.973Z,14.40
2022-11-05T09:33:53.859Z,14.60
2022-11-05T09:36:20.612Z,14.90
2022-11-05T09:38:47.495Z,15.40
2022-11-05T09:41:25.353Z,16.10
2022-11-05T09:43:57.909Z,17.10
2022-11-05T09:46:27.829Z,18.00
2022-11-05T09:49:00.611Z,18.70
2022-11-05T09:51:27.526Z,19.00
2022-11-05T09:53:57.999Z,19.60
2022-11-05T09:56:29.466Z,20.00
2022-11-05T09:59:03.459Z,20.40
2022-11-05T10:01:36.191Z,21.00
2022-11-05T10:04:16.325Z,21.50
2022-11-05T10:06:49.186Z,22.00
2022-11-05T10:09:25.018Z,22.50
2022-11-05T10:11:58.946Z,22.70
2022-11-05T10:14:33.664Z,23.20
2022-11-05T10:20:18.334Z,23.90
2022-11-05T10:22:49.326Z,24.10
2022-11-05T10:25:20.641Z,24.40
2022-11-05T10:27:53.399Z,24.60
2022-11-05T10:30:22.330Z,24.80
2022-11-05T10:32:54.590Z,25.00
2022-11-05T10:35:24.571Z,25.00
2022-11-05T10:40:38.372Z,25.40
2022-11-05T10:43:13.185Z,25.40
2022-11-05T10:45:52.590Z,25.40
2022-11-05T10:48:49.752Z,25.30
2022-11-05T10:51:18.569Z,25.00
2022-11-05T10:54:03.593Z,24.80
2022-11-05T10:56:35.726Z,24.60
2022-11-05T10:59:10.908Z,24.40
2022-11-05T11:01:41.247Z,24.10
2022-11-05T11:04:20.402Z,23.90
2022-11-05T11:06:54.424Z,23.70
2022-11-05T11:09:26.461Z,23.60
2022-11-05T11:12:05.467Z,23.50
2022-11-05T11:14:33.385Z,23.40
2022-11-05T11:17:25.298Z,23.20
2022-11-05T11:20:11.283Z,23.00
2022-11-05T11:22:38.316Z,22.80
2022-11-05T11:25:24.067Z,22.70
2022-11-05T11:27:51.727Z,22.80
2022-11-05T11:30:20.660Z,22.80
2022-11-05T11:32:49.703Z,22.90
2022-11-05T11:35:23.634Z,22.80
2022-11-05T11:37:55.372Z,22.80
2022-11-05T11:40:29.334Z,22.90
2022-11-05T11:42:59.708Z,22.90
2022-11-05T11:45:33.277Z,22.70
2022-11-05T11:48:06.161Z,22.70
2022-11-05T11:50:39.142Z,22.70
2022-11-05T11:53:34.553Z,22.70
2022-11-05T11:56:12.853Z,22.50
2022-11-05T11:58:44.614Z,22.40
2022-11-05T12:01:37.078Z,22.30
2022-11-05T12:04:17.854Z,22.10
2022-11-05T12:06:58.881Z,22.00
2022-11-05T12:09:36.997Z,21.80
2022-11-05T12:12:12.020Z,21.40
2022-11-05T12:14:50.912Z,21.10
2022-11-05T12:17:42.558Z,20.70
2022-11-05T12:20:26.716Z,20.20
2022-11-05T12:23:20.002Z,19.80
2022-11-05T12:25:58.236Z,19.60
2022-11-05T12:29:16.554Z,19.40
2022-11-05T12:31:50.188Z,19.10
2022-11-05T12:34:37.672Z,18.70
2022-11-05T12:37:21.925Z,18.60
2022-11-05T12:40:14.771Z,18.60
2022-11-05T12:43:01.840Z,18.60
2022-11-05T12:45:45.097Z,18.30
2022-11-05T12:48:37.361Z,18.00
2022-11-05T12:51:26.396Z,17.70
2022-11-05T12:54:10.871Z,17.60
2022-11-05T12:56:45.293Z,17.60
2022-11-05T12:59:21.935Z,17.40
2022-11-05T13:01:55.894Z,17.30
2022-11-05T13:04:43.975Z,17.10
2022-11-05T13:07:17.905Z,17.10
2022-11-05T13:09:53.021Z,17.10
2022-11-05T13:12:24.553Z,17.00
2022-11-05T13:14:56.774Z,16.90
2022-11-05T13:17:29.471Z,16.90
2022-11-05T13:20:05.574Z,17.00
2022-11-05T13:22:39.056Z,16.50
2022-11-05T13:25:18.320Z,16.10
2022-11-05T13:27:56.408Z,15.80
2022-11-05T13:30:29.737Z,15.40
2022-11-05T13:33:04.119Z,15.40
2022-11-05T13:35:52.751Z,15.70
2022-11-05T13:38:25.672Z,16.10
2022-11-05T13:41:12.187Z,16.20
2022-11-05T13:44:13.641Z,16.60
2022-11-05T13:47:07.206Z,16.90
2022-11-05T13:50:12.319Z,17.00
2022-11-05T13:53:03.684Z,17.10
2022-11-05T13:55:54.477Z,17.50
2022-11-05T13:58:57.691Z,17.80
2022-11-05T14:01:43.870Z,18.00
2022-11-05T14:04:25.263Z,18.20
2022-11-05T14:06:53.542Z,18.60
2022-11-05T14:09:26.627Z,19.10
2022-11-05T14:11:59.011Z,19.40
2022-11-05T14:14:33.345Z,19.10
2022-11-05T14:17:25.425Z,20.10
2022-11-05T14:20:55.913Z,20.80
2022-11-05T14:23:51.114Z,18.90
2022-11-05T14:26:22.701Z,17.90
2022-11-05T14:29:38.210Z,18.20
2022-11-05T14:32:26.206Z,16.70
2022-11-05T14:35:00.883Z,16.40
2022-11-05T14:37:32.077Z,17.10
2022-11-05T14:40:39.955Z,16.00
2022-11-05T14:43:22.888Z,15.20
2022-11-05T14:45:58.635Z,14.70
2022-11-05T14:48:37.393Z,14.50
2022-11-05T14:51:31.484Z,14.10
2022-11-05T14:54:04.158Z,13.80
2022-11-05T14:56:43.998Z,13.60
2022-11-05T14:59:53.341Z,13.40
2022-11-05T15:02:27.263Z,13.30
2022-11-05T15:05:37.862Z,13.10
2022-11-05T15:08:37.871Z,13.00
2022-11-05T15:11:15.310Z,12.80
2022-11-05T15:14:00.365Z,12.70
2022-11-05T15:16:36.215Z,12.60
2022-11-05T15:19:09.404Z,12.50
2022-11-05T15:21:39.832Z,12.40
2022-11-05T15:24:12.551Z,12.30
2022-11-05T15:26:47.554Z,12.30
2022-11-05T15:29:18.355Z,12.20
2022-11-05T15:32:17.337Z,12.20
2022-11-05T15:34:53.821Z,12.20
2022-11-05T15:37:24.241Z,12.10
2022-11-05T15:39:53.955Z,12.10
2022-11-05T15:42:23.578Z,12.00
2022-11-05T15:44:56.871Z,11.90
2022-11-05T15:47:26.130Z,11.90
2022-11-05T15:49:57.582Z,11.80
2022-11-05T15:52:32.489Z,11.70
2022-11-05T15:55:19.261Z,11.70
2022-11-05T15:57:51.274Z,11.60
2022-11-05T16:00:20.772Z,11.60
2022-11-05T16:02:56.743Z,11.50
2022-11-05T16:05:29.318Z,11.40
2022-11-05T16:08:03.819Z,11.40
2022-11-05T16:10:34.062Z,11.30
2022-11-05T16:13:28.631Z,11.30
2022-11-05T16:15:58.038Z,11.30
2022-11-05T16:18:31.405Z,11.30
2022-11-05T16:21:08.446Z,11.30
2022-11-05T16:23:45.969Z,11.30
2022-11-05T16:27:02.231Z,11.20
2022-11-05T16:32:19.516Z,11.20
2022-11-05T16:34:50.047Z,11.20
2022-11-05T16:37:23.537Z,11.10
2022-11-05T16:39:50.589Z,11.10
2022-11-05T16:42:39.665Z,11.10
2022-11-05T16:45:10.875Z,11.10
2022-11-05T16:47:37.678Z,11.10
2022-11-05T16:50:15.893Z,11.10
2022-11-05T16:52:45.291Z,11.10
2022-11-05T16:55:12.792Z,11.10
2022-11-05T16:57:42.324Z,11.10
2022-11-05T17:00:15.093Z,11.00
2022-11-05T17:02:42.427Z,11.00
2022-11-05T17:05:19.510Z,11.00
2022-11-05T17:07:47.980Z,11.00
2022-11-05T17:10:15.669Z,10.90
2022-11-05T17:12:43.233Z,11.00
2022-11-05T17:15:21.359Z,10.90
2022-11-05T17:17:48.630Z,10.90
2022-11-05T17:20:27.499Z,10.90
2022-11-05T17:22:56.399Z,10.90
2022-11-05T17:25:24.331Z,10.90
2022-11-05T17:27:51.609Z,10.90
2022-11-05T17:30:18.865Z,10.80
2022-11-05T17:32:45.913Z,10.80
2022-11-05T17:35:13.623Z,10.80
2022-11-05T17:37:41.741Z,10.80
2022-11-05T17:40:15.343Z,10.80
2022-11-05T17:42:42.418Z,10.80
2022-11-05T17:45:11.803Z,10.80
2022-11-05T17:47:39.499Z,10.70
2022-11-05T17:50:09.798Z,10.70
2022-11-05T17:52:36.986Z,10.70
2022-11-05T17:55:05.163Z,10.70
2022-11-05T17:57:33.545Z,10.70
2022-11-05T18:00:00.505Z,10.70
2022-11-05T18:02:27.712Z,10.70
2022-11-05T18:04:55.049Z,10.70
2022-11-05T18:07:22.000Z,10.70
2022-11-05T18:09:49.396Z,10.70
2022-11-05T18:12:16.347Z,10.70
2022-11-05T18:14:44.625Z,10.70
2022-11-05T18:17:15.633Z,10.60
2022-11-05T18:19:43.127Z,10.60
2022-11-05T18:22:09.892Z,10.60
2022-11-05T18:24:36.879Z,10.60
2022-11-05T18:27:04.084Z,10.60
2022-11-05T18:29:30.870Z,10.60
2022-11-05T18:31:59.355Z,10.50
2022-11-05T18:34:26.290Z,10.50
2022-11-05T18:36:56.400Z,10.50
2022-11-05T18:39:23.863Z,10.50
2022-11-05T18:41:50.873Z,10.50
2022-11-05T18:44:17.754Z,10.50
2022-11-05T18:46:57.764Z,10.50
2022-11-05T18:49:26.742Z,10.50
2022-11-05T18:51:53.774Z,10.50
2022-11-05T18:54:21.058Z,10.50
2022-11-05T18:56:48.187Z,10.40
2022-11-05T19:02:06.571Z,10.40
2022-11-05T19:04:36.811Z,10.40
2022-11-05T19:07:05.859Z,10.40
2022-11-05T19:09:34.568Z,10.40
2022-11-05T19:12:02.388Z,10.40
2022-11-05T19:14:29.492Z,10.40
2022-11-05T19:16:56.603Z,10.40
2022-11-05T19:19:23.395Z,10.40
2022-11-05T19:21:52.392Z,10.50
2022-11-05T19:24:19.569Z,10.60
2022-11-05T19:26:46.482Z,10.70
2022-11-05T19:29:13.395Z,10.70
2022-11-05T19:31:40.403Z,10.80
2022-11-05T19:34:07.296Z,10.90
2022-11-05T19:36:34.594Z,10.90
2022-11-05T19:39:06.604Z,11.00
2022-11-05T19:41:33.381Z,11.00
2022-11-05T19:44:00.684Z,11.10
2022-11-05T19:46:29.064Z,11.10
2022-11-05T19:48:56.466Z,11.10
2022-11-05T19:51:26.655Z,10.90
2022-11-05T19:53:54.515Z,10.80
2022-11-05T19:56:26.166Z,10.90
2022-11-05T19:58:54.290Z,10.90
2022-11-05T20:01:24.342Z,10.90
2022-11-05T20:03:52.195Z,10.90
2022-11-05T20:06:22.842Z,10.90
2022-11-05T20:11:38.749Z,10.70
2022-11-05T20:14:06.978Z,10.60
2022-11-05T20:16:36.069Z,10.50
2022-11-05T20:19:04.839Z,10.50
2022-11-05T20:21:31.798Z,10.50
2022-11-05T20:23:58.711Z,10.40
2022-11-05T20:26:26.436Z,10.40
2022-11-05T20:28:55.267Z,10.40
2022-11-05T20:31:22.873Z,10.40
2022-11-05T20:33:49.932Z,10.40
2022-11-05T20:36:19.956Z,10.30
2022-11-05T20:41:40.610Z,10.30
2022-11-05T20:44:08.918Z,10.30
2022-11-05T20:46:35.912Z,10.30
2022-11-05T20:49:03.069Z,10.30
2022-11-05T20:51:29.945Z,10.20
2022-11-05T20:54:01.237Z,10.20
2022-11-05T20:56:32.926Z,10.20
2022-11-05T20:59:00.904Z,10.20
2022-11-05T21:01:32.672Z,10.20
2022-11-05T21:03:59.922Z,10.20
2022-11-05T21:06:26.862Z,10.20
2022-11-05T21:08:54.215Z,10.10
2022-11-05T21:11:21.680Z,10.10
2022-11-05T21:13:49.318Z,10.10
2022-11-05T21:16:19.124Z,10.10
2022-11-05T21:18:47.961Z,10.00
2022-11-05T21:21:18.920Z,10.00
2022-11-05T21:23:48.097Z,10.00
2022-11-05T21:26:16.070Z,10.00
2022-11-05T21:28:45.835Z,10.00
2022-11-05T21:31:12.887Z,10.00
2022-11-05T21:33:39.983Z,10.00
2022-11-05T21:36:11.411Z,9.90
2022-11-05T21:38:38.922Z,10.00
2022-11-05T21:41:07.582Z,9.90
2022-11-05T21:43:35.192Z,9.90
2022-11-05T21:46:03.687Z,9.90
2022-11-05T21:48:31.691Z,9.90
2022-11-05T21:50:58.544Z,10.00
2022-11-05T21:53:27.399Z,10.00
2022-11-05T21:55:54.301Z,9.90
2022-11-05T21:58:21.463Z,10.00
2022-11-05T22:00:48.354Z,10.00
2022-11-05T22:03:15.227Z,9.90
2022-11-05T22:05:42.159Z,10.00
2022-11-05T22:08:09.550Z,10.00
2022-11-05T22:10:37.825Z,10.00
2022-11-05T22:13:04.700Z,10.00
2022-11-05T22:15:31.754Z,9.90
2022-11-05T22:17:58.500Z,10.00
2022-11-05T22:20:25.495Z,10.00
2022-11-05T22:22:53.552Z,10.00
2022-11-05T22:25:20.887Z,10.00
2022-11-05T22:27:49.076Z,10.00
2022-11-05T22:30:16.371Z,10.00
2022-11-05T22:32:43.278Z,10.00
2022-11-05T22:35:10.342Z,10.00
2022-11-05T22:37:37.254Z,10.10
2022-11-05T22:40:05.072Z,10.00
2022-11-05T22:42:31.974Z,10.10
2022-11-05T22:45:00.695Z,10.10
2022-11-05T22:47:27.516Z,10.10
2022-11-05T22:49:54.598Z,10.10
2022-11-05T22:52:21.447Z,10.10
2022-11-05T22:54:48.573Z,10.10
2022-11-05T22:57:15.932Z,10.00
2022-11-05T22:59:42.836Z,10.00
2022-11-05T23:02:10.991Z,10.00
2022-11-05T23:04:38.991Z,10.00
2022-11-05T23:07:06.631Z,10.00
2022-11-05T23:09:35.247Z,10.00
2022-11-05T23:12:05.030Z,10.00
2022-11-05T23:14:32.160Z,10.00
2022-11-05T23:19:52.197Z,10.10
2022-11-05T23:22:23.551Z,10.00
2022-11-05T23:24:50.700Z,10.00
2022-11-05T23:27:18.048Z,10.00
2022-11-05T23:29:44.965Z,10.00
2022-11-05T23:32:11.902Z,10.00
2022-11-05T23:34:39.329Z,10.00
2022-11-05T23:37:08.386Z,10.00
2022-11-05T23:39:41.216Z,10.00
2022-11-05T23:42:10.302Z,10.00
2022-11-05T23:44:37.262Z,9.90
2022-11-05T23:47:04.302Z,9.90
2022-11-05T23:49:31.652Z,9.90
2022-11-05T23:51:58.450Z,9.90
2022-11-05T23:54:26.752Z,9.80
2022-11-05T23:56:53.738Z,9.80
2022-11-05T23:59:20.750Z,9.80
